Time;durP1;ratioP1;P1;durP2;ratioP2;P2;SDS_P1;SDS_P2;PMS_P1;PMS_P2;Temp;Humidity;BMP_temperature;BMP_pressure;BME280_temperature;BME280_humidity;BME280_pressure;Samples;Min_cycle;Max_cycle;Signal;HPM_P1;HPM_P2
2024/01/04 05:43:15;;;;;;;10.00;7.80;;;;;;;5.93;100.00;98033.02;108166;270;604013;-58
2024/01/04 05:46:02;;;;;;;11.30;7.10;;;;;;;5.93;100.00;98035.31;110484;251;39427;-61
2024/01/04 05:48:39;;;;;;;11.00;7.30;;;;;;;5.97;100.00;98031.37;110493;251;39404;-62
2024/01/04 05:51:19;;;;;;;10.50;7.40;;;;;;;6.03;100.00;98033.77;110919;246;39134;-64
2024/01/04 05:53:55;;;;;;;13.20;7.10;;;;;;;6.10;100.00;98036.69;110752;246;41579;-61
2024/01/04 05:56:33;;;;;;;9.70;5.50;;;;;;;6.17;100.00;98036.65;110329;245;760631;-60
2024/01/04 05:59:13;;;;;;;7.70;5.50;;;;;;;6.26;100.00;98037.23;110954;245;39365;-61
2024/01/04 06:01:53;;;;;;;7.30;4.80;;;;;;;6.31;100.00;98040.58;110932;245;39383;-62
2024/01/04 06:04:27;;;;;;;7.00;4.30;;;;;;;6.39;100.00;98041.13;110976;245;39522;-61
2024/01/04 06:07:05;;;;;;;7.70;4.30;;;;;;;6.46;100.00;98046.50;111007;245;39248;-59
2024/01/04 06:09:40;;;;;;;8.80;4.40;;;;;;;6.53;100.00;98048.25;110944;245;39865;-61
2024/01/04 06:12:16;;;;;;;6.20;4.00;;;;;;;6.61;100.00;98051.07;110973;245;40269;-59
2024/01/04 06:14:53;;;;;;;8.00;3.80;;;;;;;6.64;100.00;98053.14;110955;245;39297;-57
2024/01/04 06:17:32;;;;;;;7.90;4.00;;;;;;;6.72;100.00;98060.29;111012;244;40721;-58
2024/01/04 06:20:09;;;;;;;4.70;3.70;;;;;;;6.79;100.00;98055.70;110994;244;40193;-62
2024/01/04 06:22:44;;;;;;;7.80;4.40;;;;;;;6.83;100.00;98058.98;110996;244;40482;-62
2024/01/04 06:25:21;;;;;;;6.40;3.90;;;;;;;6.83;100.00;98063.44;110988;244;40442;-57
2024/01/04 06:27:56;;;;;;;6.00;3.90;;;;;;;6.78;100.00;98064.64;110924;244;40224;-59
2024/01/04 06:30:37;;;;;;;6.50;3.70;;;;;;;6.77;100.00;98063.87;110961;244;39631;-62
2024/01/04 06:33:15;;;;;;;6.50;4.10;;;;;;;6.78;100.00;98060.89;110955;244;40629;-62
2024/01/04 06:35:53;;;;;;;6.10;3.80;;;;;;;6.72;100.00;98057.02;110932;244;39988;-58
2024/01/04 06:38:29;;;;;;;5.90;3.80;;;;;;;6.70;100.00;98057.30;110943;244;39067;-59
2024/01/04 06:41:07;;;;;;;6.10;3.80;;;;;;;6.73;100.00;98055.90;110938;244;40531;-61
2024/01/04 06:43:43;;;;;;;7.10;4.00;;;;;;;6.80;100.00;98056.32;110937;244;41108;-61
2024/01/04 06:46:19;;;;;;;5.50;3.70;;;;;;;6.85;100.00;98049.91;110940;244;40758;-61
2024/01/04 06:48:58;;;;;;;7.00;3.90;;;;;;;6.86;100.00;98056.14;110918;244;41127;-62
2024/01/04 06:51:34;;;;;;;8.60;6.10;;;;;;;6.90;100.00;98050.97;111005;244;38937;-58
2024/01/04 06:54:16;;;;;;;6.40;3.90;;;;;;;6.88;100.00;98054.54;110942;244;39522;-58
2024/01/04 06:56:57;;;;;;;6.90;3.70;;;;;;;6.89;100.00;98053.17;110957;244;40651;-62
2024/01/04 06:59:38;;;;;;;6.60;4.00;;;;;;;6.92;100.00;98055.19;110963;245;39607;-61
2024/01/04 07:02:13;;;;;;;7.40;3.60;;;;;;;6.90;100.00;98055.67;110975;244;39590;-57
2024/01/04 07:04:49;;;;;;;5.50;3.90;;;;;;;6.90;100.00;98056.95;110958;244;39281;-57
2024/01/04 07:07:26;;;;;;;6.60;4.00;;;;;;;6.90;100.00;98053.02;110921;244;39130;-58
2024/01/04 07:10:02;;;;;;;6.50;4.10;;;;;;;6.93;100.00;98051.10;110952;244;39417;-61
2024/01/04 07:12:42;;;;;;;6.50;4.30;;;;;;;6.98;100.00;98051.70;110959;245;39782;-61
2024/01/04 07:15:22;;;;;;;6.40;3.70;;;;;;;6.97;100.00;98051.31;110931;245;39775;-58
2024/01/04 07:17:56;;;;;;;8.00;4.50;;;;;;;7.01;100.00;98049.31;110909;244;39078;-58
2024/01/04 07:20:32;;;;;;;5.60;3.50;;;;;;;7.03;100.00;98047.48;110960;244;39534;-61
2024/01/04 07:23:08;;;;;;;5.80;3.50;;;;;;;7.06;100.00;98046.09;110936;244;39700;-61
2024/01/04 07:25:42;;;;;;;7.20;4.30;;;;;;;7.10;100.00;98047.67;110973;244;40791;-62
2024/01/04 07:28:19;;;;;;;;;;;;;;;7.13;100.00;98049.42;110977;245;39274;-60
2024/01/04 07:30:57;;;;;;;6.10;4.00;;;;;;;7.14;100.00;98044.46;110946;245;39604;-61
2024/01/04 07:33:33;;;;;;;6.10;3.90;;;;;;;7.09;100.00;98052.15;110938;244;39269;-61
2024/01/04 07:36:11;;;;;;;5.90;4.20;;;;;;;7.08;100.00;98047.35;110956;244;39825;-58
2024/01/04 07:38:49;;;;;;;8.20;4.40;;;;;;;7.10;100.00;98049.00;110948;245;40487;-58
2024/01/04 07:41:28;;;;;;;7.00;4.40;;;;;;;7.18;100.00;98051.12;110938;244;39748;-57
2024/01/04 07:44:11;;;;;;;6.60;3.70;;;;;;;7.22;100.00;98047.41;110966;244;39835;-57
2024/01/04 07:46:49;;;;;;;6.80;4.50;;;;;;;7.28;100.00;98045.02;110995;244;40559;-62
2024/01/04 07:49:28;;;;;;;7.00;4.40;;;;;;;7.35;100.00;98042.79;110969;244;39501;-61
2024/01/04 07:52:04;;;;;;;7.00;4.40;;;;;;;7.40;100.00;98046.17;110969;245;39670;-58
2024/01/04 07:54:40;;;;;;;7.20;4.50;;;;;;;7.43;100.00;98050.38;111145;244;39680;-57
2024/01/04 07:57:21;;;;;;;5.20;3.80;;;;;;;7.45;100.00;98050.55;111083;244;39305;-57
2024/01/04 08:00:01;;;;;;;6.60;4.30;;;;;;;7.46;100.00;98050.78;111117;244;39507;-60
2024/01/04 08:02:39;;;;;;;5.60;4.00;;;;;;;7.48;100.00;98051.05;111114;244;39833;-62
2024/01/04 08:05:17;;;;;;;7.30;4.60;;;;;;;7.50;100.00;98052.84;111099;244;39284;-63
2024/01/04 08:07:53;;;;;;;8.20;4.60;;;;;;;7.50;100.00;98052.97;111092;243;39359;-57
2024/01/04 08:10:30;;;;;;;5.60;3.90;;;;;;;7.50;100.00;98049.95;111112;243;39654;-58
2024/01/04 08:13:08;;;;;;;7.00;4.40;;;;;;;7.54;100.00;98051.17;111084;243;40500;-56
2024/01/04 08:15:45;;;;;;;9.10;4.80;;;;;;;7.52;100.00;98050.42;111069;243;39008;-56
2024/01/04 08:18:26;;;;;;;7.40;4.50;;;;;;;7.53;100.00;98052.96;111064;244;39573;-55
2024/01/04 08:21:08;;;;;;;6.50;4.40;;;;;;;7.53;100.00;98051.14;111063;244;41117;-58
2024/01/04 08:23:45;;;;;;;8.00;4.50;;;;;;;7.55;100.00;98050.00;111046;243;39073;-57
2024/01/04 08:26:22;;;;;;;8.20;4.90;;;;;;;7.59;100.00;98050.88;111077;244;40977;-55
2024/01/04 08:28:57;;;;;;;7.90;4.80;;;;;;;7.63;100.00;98051.67;111089;244;40947;-55
2024/01/04 08:31:33;;;;;;;7.10;5.20;;;;;;;7.69;100.00;98054.37;111112;243;40818;-57
2024/01/04 08:34:12;;;;;;;6.30;4.80;;;;;;;7.73;100.00;98054.77;111058;243;41360;-57
2024/01/04 08:36:48;;;;;;;6.90;5.40;;;;;;;7.73;100.00;98059.06;111112;243;38911;-58
2024/01/04 08:39:28;;;;;;;7.30;5.00;;;;;;;7.74;100.00;98056.44;111105;243;39547;-57
2024/01/04 08:42:06;;;;;;;7.70;5.40;;;;;;;7.78;100.00;98059.33;111118;244;40514;-62
2024/01/04 08:44:44;;;;;;;7.40;6.10;;;;;;;7.80;100.00;98059.34;111119;244;39878;-59
2024/01/04 08:47:23;;;;;;;7.50;5.50;;;;;;;7.89;100.00;98060.80;111101;244;39678;-61
2024/01/04 08:50:00;;;;;;;6.80;5.30;;;;;;;7.95;100.00;98059.73;111097;243;39804;-58
2024/01/04 08:52:43;;;;;;;6.30;5.00;;;;;;;8.00;100.00;98058.74;110962;244;39953;-59
2024/01/04 08:55:20;;;;;;;11.60;4.60;;;;;;;8.08;100.00;98060.33;111063;244;40731;-62
2024/01/04 08:58:00;;;;;;;6.20;4.50;;;;;;;8.11;100.00;98061.85;111107;244;39915;-62
2024/01/04 09:00:38;;;;;;;6.80;4.80;;;;;;;8.15;100.00;98063.63;111107;244;40951;-62
2024/01/04 09:03:19;;;;;;;7.50;5.20;;;;;;;8.14;100.00;98065.92;111021;244;41171;-62
2024/01/04 09:05:59;;;;;;;7.10;4.80;;;;;;;8.10;100.00;98070.65;110987;244;39866;-59
2024/01/04 09:08:35;;;;;;;8.40;5.20;;;;;;;8.11;100.00;98071.31;111073;244;40078;-60
2024/01/04 09:11:13;;;;;;;8.40;4.70;;;;;;;8.07;100.00;98076.35;111127;243;40323;-60
2024/01/04 09:13:55;;;;;;;6.70;5.00;;;;;;;8.07;100.00;98071.13;111136;244;40646;-61
2024/01/04 09:16:35;;;;;;;6.10;4.80;;;;;;;8.09;100.00;98071.70;111138;244;39576;-61
2024/01/04 09:19:17;;;;;;;7.30;4.90;;;;;;;8.11;100.00;98073.92;111120;244;40800;-59
2024/01/04 09:21:58;;;;;;;6.70;5.30;;;;;;;8.10;100.00;98073.44;111208;244;40312;-63
2024/01/04 09:24:39;;;;;;;6.80;4.50;;;;;;;8.08;100.00;98073.22;111109;244;39073;-62
2024/01/04 09:27:17;;;;;;;5.60;4.60;;;;;;;8.07;100.00;98076.55;111154;244;39755;-57
2024/01/04 09:29:55;;;;;;;6.40;4.60;;;;;;;8.08;100.00;98072.70;111179;244;39388;-62
2024/01/04 09:32:31;;;;;;;6.00;4.60;;;;;;;8.08;100.00;98075.05;111095;244;39519;-62
2024/01/04 09:35:09;;;;;;;6.30;5.00;;;;;;;8.10;100.00;98073.90;111117;243;39247;-57
2024/01/04 09:37:44;;;;;;;7.00;4.60;;;;;;;8.10;100.00;98069.21;111102;243;39731;-56
2024/01/04 09:40:20;;;;;;;5.90;4.50;;;;;;;8.15;100.00;98068.27;111046;244;41077;-58
2024/01/04 09:42:58;;;;;;;5.00;4.00;;;;;;;8.18;100.00;98068.11;111069;244;39552;-58
2024/01/04 09:45:40;;;;;;;6.30;4.30;;;;;;;8.21;100.00;98066.74;110984;244;41276;-57
2024/01/04 09:48:22;;;;;;;5.80;4.40;;;;;;;8.23;100.00;98066.36;111049;244;41297;-57
2024/01/04 09:51:00;;;;;;;6.80;4.20;;;;;;;8.24;100.00;98065.32;111097;244;39765;-57
2024/01/04 09:53:36;;;;;;;4.40;3.60;;;;;;;8.26;100.00;98068.73;111041;244;40674;-57
2024/01/04 09:56:14;;;;;;;4.60;3.80;;;;;;;8.24;100.00;98068.17;111056;244;40862;-65
2024/01/04 09:58:49;;;;;;;6.20;4.30;;;;;;;8.19;100.00;98070.61;111045;244;39254;-62
2024/01/04 10:01:33;;;;;;;6.80;4.30;;;;;;;8.20;100.00;98071.23;111059;243;41131;-62
2024/01/04 10:04:14;;;;;;;4.80;3.80;;;;;;;8.18;100.00;98072.11;111035;244;40059;-62
2024/01/04 10:06:51;;;;;;;6.10;4.10;;;;;;;8.20;100.00;98073.22;111072;244;40810;-63
2024/01/04 10:09:35;;;;;;;6.20;4.80;;;;;;;8.16;100.00;98075.33;111097;244;40651;-62
2024/01/04 10:12:12;;;;;;;6.20;4.30;;;;;;;8.13;100.00;98075.84;111141;244;39509;-59
2024/01/04 10:14:52;;;;;;;5.40;3.90;;;;;;;8.12;100.00;98075.02;111170;244;40660;-63
2024/01/04 10:17:28;;;;;;;7.10;4.40;;;;;;;8.16;100.00;98073.34;111116;244;40192;-64
2024/01/04 10:20:09;;;;;;;5.50;4.30;;;;;;;8.17;100.00;98071.77;111145;244;39132;-62
2024/01/04 10:22:44;;;;;;;5.90;4.30;;;;;;;8.21;100.00;98071.58;111137;244;39795;-62
2024/01/04 10:25:19;;;;;;;6.70;4.50;;;;;;;8.24;100.00;98068.50;111117;244;40616;-61
2024/01/04 10:28:01;;;;;;;7.10;4.20;;;;;;;8.33;100.00;98073.58;111090;244;39956;-61
2024/01/04 10:30:37;;;;;;;4.90;3.90;;;;;;;8.42;100.00;98074.29;111079;244;41094;-61
2024/01/04 10:33:20;;;;;;;5.30;3.70;;;;;;;8.42;100.00;98075.36;111045;244;39850;-61
2024/01/04 10:35:57;;;;;;;4.80;4.00;;;;;;;8.49;100.00;98076.48;111139;243;39448;-59
2024/01/04 10:38:38;;;;;;;6.10;3.60;;;;;;;8.53;100.00;98074.98;111058;244;39701;-58
2024/01/04 10:41:22;;;;;;;5.00;4.10;;;;;;;8.51;100.00;98073.23;111098;244;40007;-63
2024/01/04 10:44:10;;;;;;;5.40;4.20;;;;;;;8.55;100.00;98072.33;111060;243;40915;-62
2024/01/04 10:46:46;;;;;;;5.10;3.80;;;;;;;8.59;100.00;98074.03;111074;244;39878;-62
2024/01/04 10:49:25;;;;;;;5.80;3.80;;;;;;;8.58;100.00;98068.59;111037;244;41139;-63
2024/01/04 10:52:04;;;;;;;4.70;4.00;;;;;;;8.56;100.00;98071.36;111088;244;39725;-62
2024/01/04 10:54:45;;;;;;;5.10;4.30;;;;;;;8.61;100.00;98067.96;111047;244;40749;-63
2024/01/04 10:57:22;;;;;;;6.30;4.30;;;;;;;8.61;100.00;98070.48;111094;244;39209;-58
2024/01/04 10:59:59;;;;;;;5.60;4.20;;;;;;;8.62;100.00;98065.18;111077;243;39935;-62
2024/01/04 11:02:36;;;;;;;4.60;3.90;;;;;;;8.64;100.00;98064.69;111136;244;39899;-62
2024/01/04 11:05:13;;;;;;;3.90;3.50;;;;;;;8.62;100.00;98061.85;111137;244;38683;-58
2024/01/04 11:07:50;;;;;;;7.70;4.60;;;;;;;8.60;100.00;98062.39;111100;244;40557;-58
2024/01/04 11:10:27;;;;;;;5.40;4.30;;;;;;;8.62;100.00;98065.29;111122;243;39840;-58
2024/01/04 11:13:04;;;;;;;6.10;4.70;;;;;;;8.62;100.00;98061.48;111084;243;39644;-58
2024/01/04 11:15:39;;;;;;;5.80;4.60;;;;;;;8.64;100.00;98062.08;111132;244;39315;-62
2024/01/04 11:18:40;;;;;;;5.30;4.70;;;;;;;8.67;100.00;98063.92;111084;244;39498;-63
2024/01/04 11:21:48;;;;;;;6.10;5.40;;;;;;;8.71;100.00;98060.94;111107;244;38819;-62
2024/01/04 11:24:41;;;;;;;7.60;5.30;;;;;;;8.70;100.00;98063.29;111075;244;39778;-63
2024/01/04 11:27:22;;;;;;;8.00;5.40;;;;;;;8.66;100.00;98058.39;111236;242;39505;-57
2024/01/04 11:30:01;;;;;;;5.70;5.00;;;;;;;8.69;100.00;98063.30;111288;242;38918;-59
2024/01/04 11:32:44;;;;;;;6.00;5.40;;;;;;;8.69;100.00;98064.89;111254;242;40903;-58
2024/01/04 11:35:27;;;;;;;6.30;5.50;;;;;;;8.70;100.00;98064.25;111295;242;39631;-58
2024/01/04 11:38:08;;;;;;;6.90;5.60;;;;;;;8.73;100.00;98063.82;111242;242;39726;-57
2024/01/04 11:40:53;;;;;;;6.20;5.20;;;;;;;8.74;100.00;98063.16;111270;242;40798;-57
2024/01/04 11:43:38;;;;;;;7.00;4.90;;;;;;;8.77;100.00;98064.14;110913;244;39753;-57
2024/01/04 11:46:26;;;;;;;5.80;5.30;;;;;;;8.79;100.00;98061.66;110926;244;39691;-58
2024/01/04 11:49:05;;;;;;;7.40;5.40;;;;;;;8.81;100.00;98061.39;110938;244;41259;-57
2024/01/04 11:51:50;;;;;;;8.00;5.50;;;;;;;8.79;100.00;98060.19;110981;244;39762;-63
2024/01/04 11:54:32;;;;;;;7.10;6.10;;;;;;;8.76;100.00;98062.93;110910;244;38990;-62
2024/01/04 11:57:22;;;;;;;8.10;5.40;;;;;;;8.72;100.00;98061.55;110950;244;40353;-62
2024/01/04 12:00:12;;;;;;;6.70;5.90;;;;;;;8.71;100.00;98061.94;110902;244;39465;-59
2024/01/04 12:02:49;;;;;;;6.20;5.50;;;;;;;8.72;100.00;98056.12;110905;244;39338;-59
2024/01/04 12:05:29;;;;;;;7.90;6.30;;;;;;;8.70;100.00;98058.65;110911;244;39458;-58
2024/01/04 12:08:06;;;;;;;8.20;5.60;;;;;;;8.70;100.00;98055.16;110941;244;39020;-57
2024/01/04 12:10:41;;;;;;;7.60;6.10;;;;;;;8.73;100.00;98057.52;110937;244;39594;-62
2024/01/04 12:13:14;;;;;;;6.70;5.60;;;;;;;8.71;100.00;98057.21;110936;244;39808;-62
2024/01/04 12:15:53;;;;;;;8.00;6.40;;;;;;;8.72;100.00;98062.59;110968;244;40368;-62
2024/01/04 12:18:35;;;;;;;7.80;5.60;;;;;;;8.69;100.00;98061.58;110935;244;39345;-63
2024/01/04 12:21:14;;;;;;;8.60;6.00;;;;;;;8.67;100.00;98068.85;110954;244;39188;-62
2024/01/04 12:23:51;;;;;;;5.90;5.00;;;;;;;8.61;100.00;98067.70;110930;244;40201;-62
2024/01/04 12:26:26;;;;;;;6.60;5.10;;;;;;;8.59;100.00;98069.90;110960;244;39348;-57
2024/01/04 12:29:07;;;;;;;6.20;4.60;;;;;;;8.58;100.00;98070.09;110964;244;39290;-57
2024/01/04 12:31:43;;;;;;;5.00;4.00;;;;;;;8.60;100.00;98072.04;110936;244;41126;-57
2024/01/04 12:34:19;;;;;;;6.20;4.50;;;;;;;8.66;100.00;98074.86;110964;244;39228;-58
2024/01/04 12:37:06;;;;;;;8.60;4.80;;;;;;;8.71;100.00;98074.83;110979;244;40240;-59
2024/01/04 12:39:43;;;;;;;5.60;4.40;;;;;;;8.73;100.00;98081.61;110975;244;40682;-60
2024/01/04 12:42:18;;;;;;;5.30;4.40;;;;;;;8.72;100.00;98078.41;111153;242;40308;-61
2024/01/04 12:44:55;;;;;;;7.10;4.50;;;;;;;8.70;100.00;98077.82;111275;242;40365;-61
2024/01/04 12:47:39;;;;;;;5.80;4.50;;;;;;;8.68;100.00;98078.56;111239;242;40043;-61
2024/01/04 12:50:21;;;;;;;5.70;4.80;;;;;;;8.70;100.00;98082.54;111243;242;39371;-57
2024/01/04 12:52:59;;;;;;;6.20;4.20;;;;;;;8.70;100.00;98080.14;111234;242;39766;-57
2024/01/04 12:55:41;;;;;;;6.40;4.30;;;;;;;8.69;100.00;98082.14;111222;242;39578;-60
2024/01/04 12:58:23;;;;;;;6.40;4.90;;;;;;;8.74;100.00;98079.23;111214;242;39765;-62
2024/01/04 13:01:03;;;;;;;7.20;4.80;;;;;;;8.76;100.00;98077.41;111231;242;39560;-59
2024/01/04 13:03:46;;;;;;;6.00;4.50;;;;;;;8.78;100.00;98078.92;111209;242;39650;-58
2024/01/04 13:06:23;;;;;;;6.20;4.60;;;;;;;8.80;100.00;98078.05;111235;242;39320;-64
2024/01/04 13:09:00;;;;;;;6.30;4.20;;;;;;;8.79;100.00;98076.61;111235;242;39281;-63
2024/01/04 13:11:40;;;;;;;4.90;4.20;;;;;;;8.81;100.00;98077.73;111245;242;40296;-63
2024/01/04 13:14:18;;;;;;;5.50;4.70;;;;;;;8.81;100.00;98075.70;111221;242;39105;-63
2024/01/04 13:17:00;;;;;;;5.60;4.20;;;;;;;8.78;100.00;98080.48;111209;242;39854;-59
2024/01/04 13:19:38;;;;;;;6.40;4.50;;;;;;;8.73;100.00;98083.00;111232;242;40758;-58
2024/01/04 13:22:13;;;;;;;6.50;3.80;;;;;;;8.72;100.00;98083.79;111251;242;40150;-63
2024/01/04 13:24:52;;;;;;;4.80;3.70;;;;;;;8.66;100.00;98084.30;111245;242;39878;-58
2024/01/04 13:27:29;;;;;;;5.10;4.20;;;;;;;8.58;100.00;98086.35;111269;242;40266;-57
2024/01/04 13:30:12;;;;;;;6.10;4.20;;;;;;;8.55;100.00;98093.48;111300;242;40115;-63
2024/01/04 13:32:47;;;;;;;5.30;3.40;;;;;;;8.48;100.00;98099.11;111310;242;39653;-62
2024/01/04 13:35:24;;;;;;;6.10;4.00;;;;;;;8.43;100.00;98104.58;111312;242;39545;-63
2024/01/04 13:37:59;;;;;;;6.70;4.00;;;;;;;8.43;100.00;98104.28;111309;242;39851;-63
2024/01/04 13:40:40;;;;;;;4.20;3.70;;;;;;;8.39;100.00;98111.83;111358;242;39250;-62
2024/01/04 13:43:17;;;;;;;5.80;4.20;;;;;;;8.37;100.00;98114.77;111294;242;39418;-63
2024/01/04 13:45:54;;;;;;;8.20;5.10;;;;;;;8.33;100.00;98114.38;111292;242;40597;-58
2024/01/04 13:48:31;;;;;;;6.00;3.70;;;;;;;8.27;100.00;98121.77;111330;242;40135;-57
2024/01/04 13:51:08;;;;;;;5.60;3.90;;;;;;;8.22;100.00;98118.02;111292;242;41050;-62
2024/01/04 13:53:45;;;;;;;3.90;3.00;;;;;;;8.18;100.00;98121.59;111322;242;41022;-63
2024/01/04 13:56:22;;;;;;;7.90;4.40;;;;;;;8.32;100.00;98126.44;110837;242;600066;-59
2024/01/04 13:59:00;;;;;;;4.80;3.00;;;;;;;8.28;100.00;98125.77;111253;242;41149;-60
2024/01/04 14:01:40;;;;;;;4.30;2.80;;;;;;;8.22;100.00;98126.75;111292;242;40113;-63
2024/01/04 14:04:20;;;;;;;4.80;2.80;;;;;;;8.15;100.00;98125.87;111278;242;40457;-61
2024/01/04 14:06:57;;;;;;;3.30;2.80;;;;;;;8.08;100.00;98126.77;111305;242;40832;-53
2024/01/04 14:09:33;;;;;;;4.90;3.50;;;;;;;8.07;100.00;98126.08;111053;242;39962;-56
2024/01/04 14:12:12;;;;;;;6.30;3.40;;;;;;;8.03;100.00;98131.17;111338;242;39782;-60
2024/01/04 14:14:46;;;;;;;4.00;3.00;;;;;;;7.95;100.00;98132.06;111266;242;39387;-61
2024/01/04 14:17:23;;;;;;;5.40;3.00;;;;;;;7.94;100.00;98129.60;111071;242;40921;-58
2024/01/04 14:20:00;;;;;;;8.00;3.40;;;;;;;7.91;100.00;98131.29;111275;242;39625;-61
2024/01/04 14:22:39;;;;;;;7.30;4.30;;;;;;;7.92;100.00;98132.44;111270;242;39710;-60
2024/01/04 14:25:19;;;;;;;6.10;4.10;;;;;;;7.91;100.00;98136.55;111249;242;39151;-57
2024/01/04 14:27:56;;;;;;;8.20;4.80;;;;;;;7.85;100.00;98135.75;111259;242;41133;-59
2024/01/04 14:30:39;;;;;;;5.20;4.20;;;;;;;7.83;100.00;98140.52;111263;242;40767;-57
2024/01/04 14:33:17;;;;;;;6.10;3.90;;;;;;;7.81;100.00;98141.49;111290;242;39442;-56
2024/01/04 14:35:56;;;;;;;4.20;3.20;;;;;;;7.76;100.00;98144.36;111030;242;40355;-56
2024/01/04 14:38:32;;;;;;;5.80;3.70;;;;;;;7.76;100.00;98150.23;111255;242;41099;-58
2024/01/04 14:41:10;;;;;;;4.60;3.40;;;;;;;7.71;100.00;98149.22;111279;242;40720;-55
2024/01/04 14:43:48;;;;;;;6.00;3.10;;;;;;;7.67;100.00;98148.86;111321;242;40024;-57
2024/01/04 14:46:27;;;;;;;7.70;3.50;;;;;;;7.65;100.00;98151.06;111266;242;40413;-59
2024/01/04 14:49:03;;;;;;;5.00;3.60;;;;;;;7.65;100.00;98149.77;111248;242;39468;-61
2024/01/04 14:51:37;;;;;;;4.40;3.70;;;;;;;7.66;100.00;98148.28;111301;242;40388;-62
2024/01/04 14:54:11;;;;;;;;;;;;;;;7.68;100.00;98144.46;111303;242;39689;-63
2024/01/04 14:56:51;;;;;;;8.80;3.90;;;;;;;7.66;100.00;98145.48;111286;242;39777;-59
2024/01/04 14:59:27;;;;;;;6.80;4.30;;;;;;;7.65;100.00;98148.13;111256;242;40220;-57
2024/01/04 15:02:02;;;;;;;5.60;4.40;;;;;;;7.63;100.00;98149.19;111281;242;40063;-62
2024/01/04 15:04:39;;;;;;;6.10;4.20;;;;;;;7.61;100.00;98151.86;111313;242;39331;-62
2024/01/04 15:07:16;;;;;;;5.30;4.20;;;;;;;7.59;100.00;98151.59;111304;242;40575;-58
2024/01/04 15:09:50;;;;;;;5.50;4.90;;;;;;;7.62;100.00;98151.80;111109;242;39002;-62
2024/01/04 15:12:29;;;;;;;6.70;4.90;;;;;;;7.64;100.00;98148.23;111274;242;38914;-63
2024/01/04 15:15:08;;;;;;;7.00;6.00;;;;;;;7.63;100.00;98149.27;111325;241;40024;-63
2024/01/04 15:17:47;;;;;;;5.60;4.50;;;;;;;7.66;100.00;98152.80;111351;241;39730;-62
2024/01/04 15:20:27;;;;;;;6.30;5.10;;;;;;;7.63;100.00;98150.88;111253;241;39821;-58
2024/01/04 15:23:02;;;;;;;7.40;5.30;;;;;;;7.61;100.00;98149.49;111305;241;39035;-58
2024/01/04 15:25:40;;;;;;;5.30;4.30;;;;;;;7.61;100.00;98148.73;111315;241;39464;-57
2024/01/04 15:28:24;;;;;;;7.20;5.20;;;;;;;7.74;100.00;98153.61;111298;241;39467;-58
2024/01/04 15:31:04;;;;;;;6.40;4.70;;;;;;;7.66;100.00;98150.02;111325;241;39808;-62
2024/01/04 15:33:49;;;;;;;8.00;5.10;;;;;;;7.66;100.00;98155.85;111313;241;39162;-61
2024/01/04 15:36:25;;;;;;;7.60;5.70;;;;;;;7.59;100.00;98159.00;111331;241;39922;-57
2024/01/04 15:39:02;;;;;;;5.80;5.10;;;;;;;7.60;100.00;98154.77;111305;241;39403;-56
2024/01/04 15:41:41;;;;;;;5.60;4.80;;;;;;;7.61;100.00;98154.33;111309;241;39715;-61
2024/01/04 15:44:18;;;;;;;6.90;5.20;;;;;;;7.58;100.00;98151.28;111270;241;39761;-60
2024/01/04 15:46:58;;;;;;;6.20;5.10;;;;;;;7.56;100.00;98155.40;111274;241;38447;-58
2024/01/04 15:49:37;;;;;;;6.30;5.20;;;;;;;7.56;100.00;98155.09;111284;241;39189;-58
2024/01/04 15:52:12;;;;;;;6.70;5.20;;;;;;;7.56;100.00;98154.65;111231;241;40838;-58
2024/01/04 15:54:51;;;;;;;6.90;5.50;;;;;;;7.55;100.00;98157.38;111317;241;40023;-59
2024/01/04 15:57:29;;;;;;;6.10;5.50;;;;;;;7.57;100.00;98157.33;111304;241;39320;-57
2024/01/04 16:00:05;;;;;;;7.40;5.60;;;;;;;7.56;100.00;98161.02;111305;241;40935;-57
2024/01/04 16:02:46;;;;;;;6.70;4.80;;;;;;;7.53;100.00;98166.87;111280;241;40631;-60
2024/01/04 16:05:26;;;;;;;5.80;4.60;;;;;;;7.40;100.00;98166.21;111340;241;39467;-59
2024/01/04 16:08:03;;;;;;;5.50;4.00;;;;;;;7.30;100.00;98173.70;111278;241;39805;-59
2024/01/04 16:10:41;;;;;;;3.90;2.60;;;;;;;7.22;100.00;98181.30;111261;241;39126;-61
2024/01/04 16:13:20;;;;;;;4.10;2.20;;;;;;;7.03;100.00;98182.81;111296;241;40314;-63
2024/01/04 16:15:58;;;;;;;8.00;5.20;;;;;;;6.93;100.00;98183.77;111284;241;39721;-57
2024/01/04 16:18:38;;;;;;;6.80;5.20;;;;;;;6.84;100.00;98192.23;111283;241;39570;-56
2024/01/04 16:21:14;;;;;;;5.70;3.70;;;;;;;6.82;100.00;98199.55;111307;241;39665;-57
2024/01/04 16:23:51;;;;;;;5.50;3.10;;;;;;;6.79;100.00;98205.14;111258;241;42845;-58
2024/01/04 16:26:28;;;;;;;5.60;3.70;;;;;;;6.71;100.00;98210.26;111350;241;40027;-61
2024/01/04 16:29:06;;;;;;;6.70;4.40;;;;;;;6.65;100.00;98215.15;111294;241;39789;-61
2024/01/04 16:31:41;;;;;;;6.70;4.10;;;;;;;6.58;100.00;98219.09;111333;241;39369;-63
2024/01/04 16:34:19;;;;;;;12.40;8.30;;;;;;;6.56;100.00;98216.13;111284;241;39232;-63
2024/01/04 16:37:02;;;;;;;3.90;2.50;;;;;;;6.51;100.00;98218.27;111281;241;40248;-63
2024/01/04 16:39:45;;;;;;;5.00;3.00;;;;;;;6.53;100.00;98221.90;111321;241;39676;-62
2024/01/04 16:42:26;;;;;;;4.20;2.80;;;;;;;6.52;100.00;98224.17;111289;241;39117;-61
2024/01/04 16:45:05;;;;;;;4.50;2.70;;;;;;;6.44;100.00;98226.45;111276;241;39816;-57
2024/01/04 16:47:42;;;;;;;4.60;2.40;;;;;;;6.38;100.00;98226.66;111271;241;39751;-58
2024/01/04 16:50:19;;;;;;;5.90;2.80;;;;;;;6.33;100.00;98232.98;111311;241;39105;-58
2024/01/04 16:52:57;;;;;;;4.90;2.90;;;;;;;6.31;100.00;98232.92;111199;241;39256;-57
2024/01/04 16:55:38;;;;;;;3.60;2.60;;;;;;;6.29;100.00;98241.27;111291;241;40613;-57
2024/01/04 16:58:17;;;;;;;4.10;2.00;;;;;;;6.24;100.00;98245.49;111264;241;39965;-58
2024/01/04 17:00:58;;;;;;;4.90;2.20;;;;;;;6.20;100.00;98252.38;111295;241;39412;-63
2024/01/04 17:03:33;;;;;;;3.50;1.70;;;;;;;6.16;100.00;98256.42;111257;241;41346;-62
2024/01/04 17:06:09;;;;;;;3.90;1.90;;;;;;;6.11;100.00;98262.36;111317;241;40650;-62
2024/01/04 17:08:43;;;;;;;3.00;1.70;;;;;;;6.00;100.00;98264.67;111315;241;39743;-62
2024/01/04 17:11:20;;;;;;;;;;;;;;;5.98;100.00;98267.73;111307;241;39016;-60
2024/01/04 17:14:01;;;;;;;3.80;1.50;;;;;;;5.94;100.00;98271.20;111310;241;40121;-63
2024/01/04 17:16:45;;;;;;;3.50;2.20;;;;;;;5.94;100.00;98275.27;111277;241;40363;-62
2024/01/04 17:19:24;;;;;;;4.00;2.20;;;;;;;5.92;100.00;98279.33;111318;241;39445;-62
2024/01/04 17:22:04;;;;;;;2.90;1.90;;;;;;;5.89;100.00;98279.58;111373;241;40786;-61
2024/01/04 17:24:45;;;;;;;2.80;1.50;;;;;;;5.81;100.00;98281.15;111238;241;39557;-61
2024/01/04 17:27:26;;;;;;;3.30;1.80;;;;;;;5.79;100.00;98285.02;111326;241;39439;-58
2024/01/04 17:30:01;;;;;;;2.80;1.80;;;;;;;5.78;100.00;98290.02;111367;241;39869;-56
2024/01/04 17:32:38;;;;;;;3.60;2.20;;;;;;;5.77;100.00;98292.32;111277;241;39116;-56
2024/01/04 17:35:13;;;;;;;6.30;2.10;;;;;;;5.72;100.00;98297.48;111310;241;40725;-61
2024/01/04 17:37:49;;;;;;;;;;;;;;;5.67;100.00;98297.38;111323;241;40766;-59
2024/01/04 17:40:25;;;;;;;3.90;2.00;;;;;;;5.62;100.00;98298.17;111341;241;40385;-60
2024/01/04 17:42:59;;;;;;;2.80;2.00;;;;;;;5.58;100.00;98304.52;111315;241;40989;-59
2024/01/04 17:45:35;;;;;;;5.10;2.30;;;;;;;5.57;100.00;98308.11;111315;241;40426;-56
2024/01/04 17:48:10;;;;;;;4.10;2.00;;;;;;;5.51;100.00;98310.88;111277;241;39820;-56
2024/01/04 17:50:46;;;;;;;5.40;2.20;;;;;;;5.49;100.00;98314.02;111317;241;40974;-58
2024/01/04 17:53:21;;;;;;;2.70;1.90;;;;;;;5.48;100.00;98316.86;111319;241;39370;-57
2024/01/04 17:55:57;;;;;;;3.10;2.20;;;;;;;5.46;100.00;98318.13;111335;241;39092;-57
2024/01/04 17:58:36;;;;;;;3.40;2.10;;;;;;;5.43;100.00;98326.80;111307;241;40696;-60
2024/01/04 18:01:24;;;;;;;3.10;2.00;;;;;;;5.36;100.00;98328.80;111322;241;40862;-62
2024/01/04 18:04:01;;;;;;;4.70;2.50;;;;;;;5.36;100.00;98333.66;111243;241;39007;-61
2024/01/04 18:06:41;;;;;;;4.70;2.50;;;;;;;5.38;100.00;98339.39;111234;241;39972;-56
2024/01/04 18:09:18;;;;;;;4.50;2.60;;;;;;;5.39;100.00;98342.69;111309;241;39876;-58